sensor_id;sensor_type;location;lat;lon;timestamp;temperature;humidity
71117;SHT31;58775;46.992;9.518;2024-02-21T00:00:21;3.46;91.51
71117;SHT31;58775;46.992;9.518;2024-02-21T00:02:22;3.51;91.23
71117;SHT31;58775;46.992;9.518;2024-02-21T00:04:23;3.54;91.00
71117;SHT31;58775;46.992;9.518;2024-02-21T00:06:24;3.52;90.67
71117;SHT31;58775;46.992;9.518;2024-02-21T00:08:26;3.42;91.57
71117;SHT31;58775;46.992;9.518;2024-02-21T00:10:27;3.48;91.54
71117;SHT31;58775;46.992;9.518;2024-02-21T00:12:28;3.43;91.41
71117;SHT31;58775;46.992;9.518;2024-02-21T00:14:28;3.42;91.34
71117;SHT31;58775;46.992;9.518;2024-02-21T00:16:29;3.42;91.11
71117;SHT31;58775;46.992;9.518;2024-02-21T00:18:30;3.36;91.19
71117;SHT31;58775;46.992;9.518;2024-02-21T00:20:31;3.34;91.38
71117;SHT31;58775;46.992;9.518;2024-02-21T00:22:32;3.35;91.26
71117;SHT31;58775;46.992;9.518;2024-02-21T00:24:34;3.22;91.48
71117;SHT31;58775;46.992;9.518;2024-02-21T00:26:34;3.07;92.19
71117;SHT31;58775;46.992;9.518;2024-02-21T00:28:35;3.14;92.34
71117;SHT31;58775;46.992;9.518;2024-02-21T00:30:36;3.09;92.28
71117;SHT31;58775;46.992;9.518;2024-02-21T00:32:38;3.08;92.30
71117;SHT31;58775;46.992;9.518;2024-02-21T00:34:39;3.04;92.31
71117;SHT31;58775;46.992;9.518;2024-02-21T00:36:40;2.90;92.66
71117;SHT31;58775;46.992;9.518;2024-02-21T00:38:41;2.94;93.37
71117;SHT31;58775;46.992;9.518;2024-02-21T00:40:42;2.98;92.97
71117;SHT31;58775;46.992;9.518;2024-02-21T00:42:43;2.96;92.61
71117;SHT31;58775;46.992;9.518;2024-02-21T00:44:43;2.98;92.43
71117;SHT31;58775;46.992;9.518;2024-02-21T00:46:44;3.07;92.30
71117;SHT31;58775;46.992;9.518;2024-02-21T00:48:45;3.07;92.46
71117;SHT31;58775;46.992;9.518;2024-02-21T00:50:46;2.91;93.04
71117;SHT31;58775;46.992;9.518;2024-02-21T00:52:47;2.96;92.96
71117;SHT31;58775;46.992;9.518;2024-02-21T00:54:49;2.96;91.99
71117;SHT31;58775;46.992;9.518;2024-02-21T00:56:50;2.91;92.62
71117;SHT31;58775;46.992;9.518;2024-02-21T00:58:50;2.83;92.42
71117;SHT31;58775;46.992;9.518;2024-02-21T01:00:51;2.88;92.28
71117;SHT31;58775;46.992;9.518;2024-02-21T01:02:52;2.88;92.92
71117;SHT31;58775;46.992;9.518;2024-02-21T01:04:53;2.86;92.83
71117;SHT31;58775;46.992;9.518;2024-02-21T01:06:54;2.73;92.97
71117;SHT31;58775;46.992;9.518;2024-02-21T01:08:54;2.91;92.47
71117;SHT31;58775;46.992;9.518;2024-02-21T01:10:55;2.84;93.50
71117;SHT31;58775;46.992;9.518;2024-02-21T01:12:56;2.96;92.28
71117;SHT31;58775;46.992;9.518;2024-02-21T01:14:57;2.90;91.74
71117;SHT31;58775;46.992;9.518;2024-02-21T01:16:57;2.91;92.13
71117;SHT31;58775;46.992;9.518;2024-02-21T01:18:58;2.87;92.26
71117;SHT31;58775;46.992;9.518;2024-02-21T01:20:59;2.90;92.29
71117;SHT31;58775;46.992;9.518;2024-02-21T01:23:00;2.81;93.12
71117;SHT31;58775;46.992;9.518;2024-02-21T01:25:01;2.79;93.15
71117;SHT31;58775;46.992;9.518;2024-02-21T01:27:02;2.74;92.93
71117;SHT31;58775;46.992;9.518;2024-02-21T01:29:03;2.72;92.43
71117;SHT31;58775;46.992;9.518;2024-02-21T01:31:04;2.84;92.63
71117;SHT31;58775;46.992;9.518;2024-02-21T01:33:05;2.79;93.16
71117;SHT31;58775;46.992;9.518;2024-02-21T01:35:07;2.87;92.76
71117;SHT31;58775;46.992;9.518;2024-02-21T01:37:08;2.93;92.12
71117;SHT31;58775;46.992;9.518;2024-02-21T01:39:09;2.72;92.23
71117;SHT31;58775;46.992;9.518;2024-02-21T01:41:10;2.90;90.89
71117;SHT31;58775;46.992;9.518;2024-02-21T01:43:19;2.98;90.69
71117;SHT31;58775;46.992;9.518;2024-02-21T01:45:20;3.03;90.83
71117;SHT31;58775;46.992;9.518;2024-02-21T01:47:21;3.05;90.77
71117;SHT31;58775;46.992;9.518;2024-02-21T01:49:22;3.19;89.46
71117;SHT31;58775;46.992;9.518;2024-02-21T01:51:24;3.32;87.91
71117;SHT31;58775;46.992;9.518;2024-02-21T01:53:40;3.25;88.57
71117;SHT31;58775;46.992;9.518;2024-02-21T01:55:44;3.31;88.76
71117;SHT31;58775;46.992;9.518;2024-02-21T01:57:46;3.27;89.93
71117;SHT31;58775;46.992;9.518;2024-02-21T01:59:49;3.05;90.33
71117;SHT31;58775;46.992;9.518;2024-02-21T02:01:51;3.11;90.72
71117;SHT31;58775;46.992;9.518;2024-02-21T02:03:53;3.11;90.15
71117;SHT31;58775;46.992;9.518;2024-02-21T02:05:55;2.91;90.88
71117;SHT31;58775;46.992;9.518;2024-02-21T02:07:56;2.90;91.45
71117;SHT31;58775;46.992;9.518;2024-02-21T02:09:57;2.93;91.63
71117;SHT31;58775;46.992;9.518;2024-02-21T02:11:58;2.86;91.75
71117;SHT31;58775;46.992;9.518;2024-02-21T02:13:59;2.96;91.14
71117;SHT31;58775;46.992;9.518;2024-02-21T02:16:00;2.88;91.34
71117;SHT31;58775;46.992;9.518;2024-02-21T02:18:01;2.80;92.45
71117;SHT31;58775;46.992;9.518;2024-02-21T02:20:02;2.81;91.56
71117;SHT31;58775;46.992;9.518;2024-02-21T02:22:09;2.84;90.56
71117;SHT31;58775;46.992;9.518;2024-02-21T02:24:14;2.84;91.15
71117;SHT31;58775;46.992;9.518;2024-02-21T02:26:16;2.80;91.65
71117;SHT31;58775;46.992;9.518;2024-02-21T02:28:17;2.84;91.63
71117;SHT31;58775;46.992;9.518;2024-02-21T02:30:18;2.73;92.26
71117;SHT31;58775;46.992;9.518;2024-02-21T02:32:19;2.58;93.03
71117;SHT31;58775;46.992;9.518;2024-02-21T02:34:20;2.63;92.41
71117;SHT31;58775;46.992;9.518;2024-02-21T02:36:21;2.72;91.52
71117;SHT31;58775;46.992;9.518;2024-02-21T02:38:21;2.76;91.19
71117;SHT31;58775;46.992;9.518;2024-02-21T02:40:22;2.68;91.81
71117;SHT31;58775;46.992;9.518;2024-02-21T02:42:23;2.66;92.26
71117;SHT31;58775;46.992;9.518;2024-02-21T02:44:24;2.53;92.87
71117;SHT31;58775;46.992;9.518;2024-02-21T02:46:25;2.66;91.52
71117;SHT31;58775;46.992;9.518;2024-02-21T02:48:26;2.60;91.79
71117;SHT31;58775;46.992;9.518;2024-02-21T02:50:27;2.80;89.87
71117;SHT31;58775;46.992;9.518;2024-02-21T02:52:28;2.90;88.81
71117;SHT31;58775;46.992;9.518;2024-02-21T02:54:28;2.90;89.06
71117;SHT31;58775;46.992;9.518;2024-02-21T02:56:29;2.91;88.80
71117;SHT31;58775;46.992;9.518;2024-02-21T02:58:30;3.05;87.83
71117;SHT31;58775;46.992;9.518;2024-02-21T03:00:31;3.12;87.76
71117;SHT31;58775;46.992;9.518;2024-02-21T03:02:38;3.24;87.08
71117;SHT31;58775;46.992;9.518;2024-02-21T03:04:41;3.21;87.89
71117;SHT31;58775;46.992;9.518;2024-02-21T03:06:42;3.21;88.56
71117;SHT31;58775;46.992;9.518;2024-02-21T03:08:43;3.18;87.98
71117;SHT31;58775;46.992;9.518;2024-02-21T03:10:44;3.21;87.24
71117;SHT31;58775;46.992;9.518;2024-02-21T03:12:45;3.21;86.94
71117;SHT31;58775;46.992;9.518;2024-02-21T03:14:46;3.35;86.92
71117;SHT31;58775;46.992;9.518;2024-02-21T03:16:46;3.39;87.70
71117;SHT31;58775;46.992;9.518;2024-02-21T03:18:47;3.38;86.41
71117;SHT31;58775;46.992;9.518;2024-02-21T03:20:50;3.15;88.33
71117;SHT31;58775;46.992;9.518;2024-02-21T03:22:51;3.14;88.40
71117;SHT31;58775;46.992;9.518;2024-02-21T03:24:51;3.14;88.57
71117;SHT31;58775;46.992;9.518;2024-02-21T03:26:52;3.15;87.19
71117;SHT31;58775;46.992;9.518;2024-02-21T03:28:53;3.32;86.54
71117;SHT31;58775;46.992;9.518;2024-02-21T03:30:54;3.29;86.35
71117;SHT31;58775;46.992;9.518;2024-02-21T03:32:55;3.11;88.40
71117;SHT31;58775;46.992;9.518;2024-02-21T03:34:56;2.96;89.02
71117;SHT31;58775;46.992;9.518;2024-02-21T03:36:57;2.88;89.41
71117;SHT31;58775;46.992;9.518;2024-02-21T03:38:58;2.93;90.07
71117;SHT31;58775;46.992;9.518;2024-02-21T03:40:58;3.03;88.00
71117;SHT31;58775;46.992;9.518;2024-02-21T03:42:59;2.93;89.49
71117;SHT31;58775;46.992;9.518;2024-02-21T03:45:00;3.08;86.82
71117;SHT31;58775;46.992;9.518;2024-02-21T03:47:01;2.98;89.23
71117;SHT31;58775;46.992;9.518;2024-02-21T03:49:02;3.07;88.72
71117;SHT31;58775;46.992;9.518;2024-02-21T03:51:03;3.04;88.56
71117;SHT31;58775;46.992;9.518;2024-02-21T03:53:04;2.86;89.24
71117;SHT31;58775;46.992;9.518;2024-02-21T03:55:05;3.03;87.29
71117;SHT31;58775;46.992;9.518;2024-02-21T03:57:08;3.04;87.68
71117;SHT31;58775;46.992;9.518;2024-02-21T03:59:09;3.25;85.56
71117;SHT31;58775;46.992;9.518;2024-02-21T04:01:09;3.49;85.77
71117;SHT31;58775;46.992;9.518;2024-02-21T04:03:10;3.63;84.14
71117;SHT31;58775;46.992;9.518;2024-02-21T04:05:11;3.79;82.94
71117;SHT31;58775;46.992;9.518;2024-02-21T04:07:15;3.91;82.03
71117;SHT31;58775;46.992;9.518;2024-02-21T04:09:16;4.03;81.42
71117;SHT31;58775;46.992;9.518;2024-02-21T04:11:17;3.97;81.56
71117;SHT31;58775;46.992;9.518;2024-02-21T04:13:19;4.00;81.73
71117;SHT31;58775;46.992;9.518;2024-02-21T04:15:20;4.01;81.70
71117;SHT31;58775;46.992;9.518;2024-02-21T04:17:20;3.99;81.28
71117;SHT31;58775;46.992;9.518;2024-02-21T04:19:21;3.97;81.44
71117;SHT31;58775;46.992;9.518;2024-02-21T04:21:22;3.94;81.38
71117;SHT31;58775;46.992;9.518;2024-02-21T04:23:23;3.90;81.61
71117;SHT31;58775;46.992;9.518;2024-02-21T04:25:24;3.76;81.89
71117;SHT31;58775;46.992;9.518;2024-02-21T04:27:25;3.69;82.43
71117;SHT31;58775;46.992;9.518;2024-02-21T04:29:25;3.75;81.98
71117;SHT31;58775;46.992;9.518;2024-02-21T04:31:28;3.79;81.12
71117;SHT31;58775;46.992;9.518;2024-02-21T04:33:29;3.87;80.75
71117;SHT31;58775;46.992;9.518;2024-02-21T04:35:30;3.90;80.67
71117;SHT31;58775;46.992;9.518;2024-02-21T04:37:30;4.06;79.62
71117;SHT31;58775;46.992;9.518;2024-02-21T04:39:31;4.17;79.79
71117;SHT31;58775;46.992;9.518;2024-02-21T04:41:32;4.30;79.11
71117;SHT31;58775;46.992;9.518;2024-02-21T04:43:33;4.29;79.17
71117;SHT31;58775;46.992;9.518;2024-02-21T04:45:34;4.29;79.47
71117;SHT31;58775;46.992;9.518;2024-02-21T04:47:34;4.31;79.58
71117;SHT31;58775;46.992;9.518;2024-02-21T04:49:35;4.42;78.71
71117;SHT31;58775;46.992;9.518;2024-02-21T04:51:36;4.54;78.35
71117;SHT31;58775;46.992;9.518;2024-02-21T04:53:37;4.45;78.98
71117;SHT31;58775;46.992;9.518;2024-02-21T04:55:38;4.61;77.83
71117;SHT31;58775;46.992;9.518;2024-02-21T04:57:40;4.54;78.14
71117;SHT31;58775;46.992;9.518;2024-02-21T04:59:41;4.52;77.83
71117;SHT31;58775;46.992;9.518;2024-02-21T05:01:42;4.62;77.22
71117;SHT31;58775;46.992;9.518;2024-02-21T05:03:43;4.61;77.23
71117;SHT31;58775;46.992;9.518;2024-02-21T05:05:43;4.64;76.81
71117;SHT31;58775;46.992;9.518;2024-02-21T05:07:44;4.65;76.27
71117;SHT31;58775;46.992;9.518;2024-02-21T05:09:45;4.75;75.63
71117;SHT31;58775;46.992;9.518;2024-02-21T05:11:46;4.67;76.22
71117;SHT31;58775;46.992;9.518;2024-02-21T05:13:48;4.67;75.63
71117;SHT31;58775;46.992;9.518;2024-02-21T05:15:49;4.64;75.86
71117;SHT31;58775;46.992;9.518;2024-02-21T05:17:50;4.48;77.05
71117;SHT31;58775;46.992;9.518;2024-02-21T05:19:50;4.34;77.43
71117;SHT31;58775;46.992;9.518;2024-02-21T05:21:51;4.24;78.01
71117;SHT31;58775;46.992;9.518;2024-02-21T05:23:52;4.07;78.40
71117;SHT31;58775;46.992;9.518;2024-02-21T05:25:53;3.90;79.32
71117;SHT31;58775;46.992;9.518;2024-02-21T05:27:53;3.85;79.95
71117;SHT31;58775;46.992;9.518;2024-02-21T05:29:56;3.86;79.53
71117;SHT31;58775;46.992;9.518;2024-02-21T05:31:57;3.86;79.29
71117;SHT31;58775;46.992;9.518;2024-02-21T05:33:58;3.90;79.14
71117;SHT31;58775;46.992;9.518;2024-02-21T05:35:59;4.14;77.75
71117;SHT31;58775;46.992;9.518;2024-02-21T05:38:00;4.22;77.44
71117;SHT31;58775;46.992;9.518;2024-02-21T05:40:01;4.30;77.71
71117;SHT31;58775;46.992;9.518;2024-02-21T05:42:02;4.16;78.20
71117;SHT31;58775;46.992;9.518;2024-02-21T05:44:03;4.27;77.17
71117;SHT31;58775;46.992;9.518;2024-02-21T05:46:04;4.29;77.42
71117;SHT31;58775;46.992;9.518;2024-02-21T05:48:05;4.33;77.19
71117;SHT31;58775;46.992;9.518;2024-02-21T05:50:06;4.41;76.41
71117;SHT31;58775;46.992;9.518;2024-02-21T05:52:07;4.52;75.50
71117;SHT31;58775;46.992;9.518;2024-02-21T05:54:07;4.64;75.60
71117;SHT31;58775;46.992;9.518;2024-02-21T05:56:12;4.57;75.80
71117;SHT31;58775;46.992;9.518;2024-02-21T05:58:13;4.62;76.08
71117;SHT31;58775;46.992;9.518;2024-02-21T06:00:14;4.47;75.97
71117;SHT31;58775;46.992;9.518;2024-02-21T06:02:15;4.52;76.00
71117;SHT31;58775;46.992;9.518;2024-02-21T06:04:16;4.34;76.70
71117;SHT31;58775;46.992;9.518;2024-02-21T06:06:17;4.29;77.25
71117;SHT31;58775;46.992;9.518;2024-02-21T06:08:18;4.24;77.16
71117;SHT31;58775;46.992;9.518;2024-02-21T06:10:19;4.17;77.00
71117;SHT31;58775;46.992;9.518;2024-02-21T06:12:20;4.30;76.10
71117;SHT31;58775;46.992;9.518;2024-02-21T06:14:21;4.34;76.22
71117;SHT31;58775;46.992;9.518;2024-02-21T06:16:22;4.37;76.01
71117;SHT31;58775;46.992;9.518;2024-02-21T06:18:23;4.42;75.95
71117;SHT31;58775;46.992;9.518;2024-02-21T06:20:23;4.62;74.53
71117;SHT31;58775;46.992;9.518;2024-02-21T06:22:24;4.81;73.19
71117;SHT31;58775;46.992;9.518;2024-02-21T06:24:25;4.86;73.76
71117;SHT31;58775;46.992;9.518;2024-02-21T06:26:26;4.96;72.31
71117;SHT31;58775;46.992;9.518;2024-02-21T06:28:27;4.99;72.71
71117;SHT31;58775;46.992;9.518;2024-02-21T06:30:28;5.09;72.04
71117;SHT31;58775;46.992;9.518;2024-02-21T06:32:28;5.05;72.86
71117;SHT31;58775;46.992;9.518;2024-02-21T06:34:29;4.95;73.90
71117;SHT31;58775;46.992;9.518;2024-02-21T06:36:30;4.85;74.78
71117;SHT31;58775;46.992;9.518;2024-02-21T06:38:33;4.79;74.78
71117;SHT31;58775;46.992;9.518;2024-02-21T06:40:37;4.71;74.91
71117;SHT31;58775;46.992;9.518;2024-02-21T06:42:52;4.71;75.06
71117;SHT31;58775;46.992;9.518;2024-02-21T06:44:59;4.73;74.76
71117;SHT31;58775;46.992;9.518;2024-02-21T06:47:02;4.85;73.20
71117;SHT31;58775;46.992;9.518;2024-02-21T06:49:03;4.99;72.66
71117;SHT31;58775;46.992;9.518;2024-02-21T06:51:13;5.13;71.96
71117;SHT31;58775;46.992;9.518;2024-02-21T07:00:36;5.36;71.66
71117;SHT31;58775;46.992;9.518;2024-02-21T07:02:42;5.30;72.43
71117;SHT31;58775;46.992;9.518;2024-02-21T07:05:21;5.42;71.27
71117;SHT31;58775;46.992;9.518;2024-02-21T07:35:19;5.54;72.48
71117;SHT31;58775;46.992;9.518;2024-02-21T07:37:20;5.58;72.08
71117;SHT31;58775;46.992;9.518;2024-02-21T07:39:21;5.55;71.84
71117;SHT31;58775;46.992;9.518;2024-02-21T11:03:45;16.42;45.28
71117;SHT31;58775;46.992;9.518;2024-02-21T11:12:45;17.13;46.93
71117;SHT31;58775;46.992;9.518;2024-02-21T11:17:21;17.04;44.10
71117;SHT31;58775;46.992;9.518;2024-02-21T11:25:36;16.49;46.42
71117;SHT31;58775;46.992;9.518;2024-02-21T11:28:13;16.53;45.68
71117;SHT31;58775;46.992;9.518;2024-02-21T11:33:52;16.55;45.83
71117;SHT31;58775;46.992;9.518;2024-02-21T11:35:56;16.69;46.62
71117;SHT31;58775;46.992;9.518;2024-02-21T11:38:15;16.96;45.17
71117;SHT31;58775;46.992;9.518;2024-02-21T11:40:17;16.94;44.43
71117;SHT31;58775;46.992;9.518;2024-02-21T11:42:27;16.96;45.38
71117;SHT31;58775;46.992;9.518;2024-02-21T11:45:17;16.90;46.37
71117;SHT31;58775;46.992;9.518;2024-02-21T11:54:58;17.14;44.26
71117;SHT31;58775;46.992;9.518;2024-02-21T12:01:25;16.41;44.56
71117;SHT31;58775;46.992;9.518;2024-02-21T12:04:17;15.77;48.10
71117;SHT31;58775;46.992;9.518;2024-02-21T12:29:26;17.14;53.43
71117;SHT31;58775;46.992;9.518;2024-02-21T12:41:21;18.68;39.06
71117;SHT31;58775;46.992;9.518;2024-02-21T13:12:25;16.32;46.60
71117;SHT31;58775;46.992;9.518;2024-02-21T13:25:59;15.78;45.50
71117;SHT31;58775;46.992;9.518;2024-02-21T13:28:39;15.70;45.29
71117;SHT31;58775;46.992;9.518;2024-02-21T13:30:41;15.74;43.81
71117;SHT31;58775;46.992;9.518;2024-02-21T13:32:51;15.77;45.02
71117;SHT31;58775;46.992;9.518;2024-02-21T13:35:06;15.73;43.86
71117;SHT31;58775;46.992;9.518;2024-02-21T13:37:37;15.54;45.93
71117;SHT31;58775;46.992;9.518;2024-02-21T13:40:02;15.54;44.94
71117;SHT31;58775;46.992;9.518;2024-02-21T13:42:10;15.56;46.12
71117;SHT31;58775;46.992;9.518;2024-02-21T13:44:33;15.29;50.99
71117;SHT31;58775;46.992;9.518;2024-02-21T13:47:12;15.43;51.46
71117;SHT31;58775;46.992;9.518;2024-02-21T13:49:20;15.15;55.85
71117;SHT31;58775;46.992;9.518;2024-02-21T13:51:27;14.68;60.84
71117;SHT31;58775;46.992;9.518;2024-02-21T13:54:00;15.02;56.84
71117;SHT31;58775;46.992;9.518;2024-02-21T13:56:16;14.79;58.67
71117;SHT31;58775;46.992;9.518;2024-02-21T13:58:25;14.85;57.81
71117;SHT31;58775;46.992;9.518;2024-02-21T14:10:48;15.42;47.20
71117;SHT31;58775;46.992;9.518;2024-02-21T14:12:49;15.54;49.18
71117;SHT31;58775;46.992;9.518;2024-02-21T14:14:58;15.64;50.39
71117;SHT31;58775;46.992;9.518;2024-02-21T14:17:12;15.30;53.68
71117;SHT31;58775;46.992;9.518;2024-02-21T14:19:21;15.18;53.13
71117;SHT31;58775;46.992;9.518;2024-02-21T14:24:41;14.89;55.79
71117;SHT31;58775;46.992;9.518;2024-02-21T14:28:08;14.86;56.04
71117;SHT31;58775;46.992;9.518;2024-02-21T14:30:57;15.05;55.27
71117;SHT31;58775;46.992;9.518;2024-02-21T14:33:36;14.48;58.63
71117;SHT31;58775;46.992;9.518;2024-02-21T14:36:25;14.45;58.43
71117;SHT31;58775;46.992;9.518;2024-02-21T14:41:59;13.79;64.57
71117;SHT31;58775;46.992;9.518;2024-02-21T14:44:19;13.74;60.70
71117;SHT31;58775;46.992;9.518;2024-02-21T14:46:51;13.69;65.50
71117;SHT31;58775;46.992;9.518;2024-02-21T14:49:17;13.79;62.23
71117;SHT31;58775;46.992;9.518;2024-02-21T14:55:00;13.76;60.32
71117;SHT31;58775;46.992;9.518;2024-02-21T14:58:18;13.79;61.30
71117;SHT31;58775;46.992;9.518;2024-02-21T15:00:26;13.38;61.47
71117;SHT31;58775;46.992;9.518;2024-02-21T15:02:50;13.74;59.86
71117;SHT31;58775;46.992;9.518;2024-02-21T15:33:07;12.53;75.09
71117;SHT31;58775;46.992;9.518;2024-02-21T15:35:31;12.36;76.19
71117;SHT31;58775;46.992;9.518;2024-02-21T15:38:00;12.32;75.17
71117;SHT31;58775;46.992;9.518;2024-02-21T15:40:22;12.29;75.12
71117;SHT31;58775;46.992;9.518;2024-02-21T15:42:31;12.37;75.40
71117;SHT31;58775;46.992;9.518;2024-02-21T15:48:45;12.05;76.09
71117;SHT31;58775;46.992;9.518;2024-02-21T15:51:19;12.05;75.45
71117;SHT31;58775;46.992;9.518;2024-02-21T15:57:36;12.15;75.63
71117;SHT31;58775;46.992;9.518;2024-02-21T16:00:13;11.85;76.09
71117;SHT31;58775;46.992;9.518;2024-02-21T16:03:35;12.00;75.65
71117;SHT31;58775;46.992;9.518;2024-02-21T16:12:41;11.40;78.41
71117;SHT31;58775;46.992;9.518;2024-02-21T16:15:09;11.30;78.84
71117;SHT31;58775;46.992;9.518;2024-02-21T19:10:23;8.27;83.70
71117;SHT31;58775;46.992;9.518;2024-02-21T19:14:56;8.29;82.99
71117;SHT31;58775;46.992;9.518;2024-02-21T19:16:58;8.45;85.39
71117;SHT31;58775;46.992;9.518;2024-02-21T19:19:00;8.33;83.13
71117;SHT31;58775;46.992;9.518;2024-02-21T19:21:01;8.27;83.23
71117;SHT31;58775;46.992;9.518;2024-02-21T19:23:02;8.23;83.36
71117;SHT31;58775;46.992;9.518;2024-02-21T19:25:04;8.23;84.38
71117;SHT31;58775;46.992;9.518;2024-02-21T19:27:08;8.27;84.46
71117;SHT31;58775;46.992;9.518;2024-02-21T19:29:09;8.24;83.46
71117;SHT31;58775;46.992;9.518;2024-02-21T19:31:16;8.24;83.00
71117;SHT31;58775;46.992;9.518;2024-02-21T19:33:20;8.26;83.65
71117;SHT31;58775;46.992;9.518;2024-02-21T19:35:24;8.16;83.47
71117;SHT31;58775;46.992;9.518;2024-02-21T19:37:25;8.23;82.91
71117;SHT31;58775;46.992;9.518;2024-02-21T19:39:26;8.23;82.32
71117;SHT31;58775;46.992;9.518;2024-02-21T19:41:30;8.04;83.14
71117;SHT31;58775;46.992;9.518;2024-02-21T19:43:35;8.00;83.03
71117;SHT31;58775;46.992;9.518;2024-02-21T19:45:43;8.06;83.60
71117;SHT31;58775;46.992;9.518;2024-02-21T19:47:48;8.13;83.19
71117;SHT31;58775;46.992;9.518;2024-02-21T19:49:49;8.09;83.77
71117;SHT31;58775;46.992;9.518;2024-02-21T19:51:52;8.11;83.90
71117;SHT31;58775;46.992;9.518;2024-02-21T19:53:55;8.11;83.52
71117;SHT31;58775;46.992;9.518;2024-02-21T19:55:56;8.19;83.57
71117;SHT31;58775;46.992;9.518;2024-02-21T19:58:22;7.93;85.21
71117;SHT31;58775;46.992;9.518;2024-02-21T20:00:23;7.89;84.98
71117;SHT31;58775;46.992;9.518;2024-02-21T20:02:24;7.94;84.40
71117;SHT31;58775;46.992;9.518;2024-02-21T20:04:25;8.01;84.24
71117;SHT31;58775;46.992;9.518;2024-02-21T20:06:39;8.16;83.00
71117;SHT31;58775;46.992;9.518;2024-02-21T20:11:41;7.99;83.71
71117;SHT31;58775;46.992;9.518;2024-02-21T20:13:44;7.86;85.92
71117;SHT31;58775;46.992;9.518;2024-02-21T20:15:45;7.92;84.53
71117;SHT31;58775;46.992;9.518;2024-02-21T20:17:53;7.94;84.76
71117;SHT31;58775;46.992;9.518;2024-02-21T20:20:00;8.00;85.63
